SVA1052 OEJN-OERK
Flight info
| Callsign | SVA1052 |
|---|---|
| Flight time | 1h 12m |
| Altitude | 39000 |
| Route | EGREP T532 ORDEM |
| Aircraft | A20N/M-SDE2E3FGHIRWXY/LB1 |
Departure
| Time | 2026-04-27 20:17 |
|---|---|
| Airport | King Abdulaziz International Airport (OEJN) |
Arrival
| Time | 2026-04-27 21:29 |
|---|---|
| Airport | King Khalid International Airport (OERK) |
| Time | Latitude | Longitude | Altitude | Speed | Heading |
|---|---|---|---|---|---|
| 2026-04-27 19:54 | 21.66793 | 39.17000 | 34 ft | 0 kts | 66° |
| 2026-04-27 20:08 | 21.66790 | 39.16994 | 35 ft | 2 kts | 65° |
| 2026-04-27 20:08 | 21.66781 | 39.16975 | 35 ft | 3 kts | 63° |
| 2026-04-27 20:08 | 21.66773 | 39.16958 | 34 ft | 3 kts | 62° |
| 2026-04-27 20:08 | 21.66764 | 39.16939 | 35 ft | 3 kts | 68° |
| 2026-04-27 20:09 | 21.66759 | 39.16919 | 35 ft | 3 kts | 100° |
| 2026-04-27 20:09 | 21.66762 | 39.16909 | 36 ft | 1 kts | 155° |
| 2026-04-27 20:13 | 21.66757 | 39.16911 | 36 ft | 4 kts | 156° |
| 2026-04-27 20:13 | 21.66707 | 39.16929 | 34 ft | 11 kts | 162° |
| 2026-04-27 20:13 | 21.66619 | 39.16959 | 35 ft | 15 kts | 162° |
| 2026-04-27 20:14 | 21.66512 | 39.16996 | 35 ft | 18 kts | 162° |
| 2026-04-27 20:14 | 21.66412 | 39.16964 | 38 ft | 17 kts | 252° |
| 2026-04-27 20:14 | 21.66363 | 39.16826 | 34 ft | 22 kts | 252° |
| 2026-04-27 20:14 | 21.66313 | 39.16666 | 35 ft | 23 kts | 251° |
| 2026-04-27 20:15 | 21.66284 | 39.16584 | 33 ft | 8 kts | 248° |
| 2026-04-27 20:15 | 21.66258 | 39.16513 | 32 ft | 13 kts | 249° |
| 2026-04-27 20:15 | 21.66244 | 39.16431 | 32 ft | 6 kts | 307° |
| 2026-04-27 20:15 | 21.66265 | 39.16429 | 32 ft | 4 kts | 358° |
| 2026-04-27 20:16 | 21.66291 | 39.16419 | 33 ft | 7 kts | 339° |
| 2026-04-27 20:16 | 21.66550 | 39.16319 | 37 ft | 75 kts | 340° |
| 2026-04-27 20:16 | 21.67233 | 39.16052 | 33 ft | 132 kts | 340° |
| 2026-04-27 20:16 | 21.68209 | 39.15666 | 272 ft | 151 kts | 340° |
| 2026-04-27 20:17 | 21.69127 | 39.15308 | 1110 ft | 131 kts | 342° |
| 2026-04-27 20:17 | 21.69980 | 39.14970 | 1722 ft | 132 kts | 341° |
| 2026-04-27 20:17 | 21.70829 | 39.14549 | 2239 ft | 136 kts | 338° |
| 2026-04-27 20:17 | 21.71422 | 39.14267 | 2536 ft | 142 kts | 342° |
| 2026-04-27 20:18 | 21.72753 | 39.13821 | 3066 ft | 156 kts | 345° |
| 2026-04-27 20:18 | 21.73806 | 39.13481 | 3543 ft | 164 kts | 343° |
| 2026-04-27 20:18 | 21.74961 | 39.13073 | 3804 ft | 186 kts | 342° |
| 2026-04-27 20:18 | 21.76286 | 39.12678 | 4085 ft | 211 kts | 357° |
| 2026-04-27 20:19 | 21.77783 | 39.13062 | 4430 ft | 238 kts | 29° |
| 2026-04-27 20:19 | 21.79159 | 39.14208 | 4889 ft | 264 kts | 44° |
| 2026-04-27 20:19 | 21.80469 | 39.15682 | 5533 ft | 278 kts | 47° |
| 2026-04-27 20:19 | 21.81803 | 39.17226 | 6369 ft | 285 kts | 46° |
| 2026-04-27 20:20 | 21.83206 | 39.18778 | 7184 ft | 291 kts | 44° |
| 2026-04-27 20:20 | 21.84662 | 39.20315 | 8079 ft | 295 kts | 43° |
| 2026-04-27 20:20 | 21.86163 | 39.21860 | 8900 ft | 302 kts | 43° |
| 2026-04-27 20:20 | 21.87707 | 39.23430 | 9748 ft | 308 kts | 42° |
| 2026-04-27 20:21 | 21.89293 | 39.25037 | 10407 ft | 321 kts | 42° |
| 2026-04-27 20:21 | 21.90981 | 39.26746 | 10700 ft | 346 kts | 42° |
| 2026-04-27 20:21 | 21.92787 | 39.28576 | 11040 ft | 365 kts | 43° |
| 2026-04-27 20:21 | 21.94653 | 39.30473 | 11746 ft | 372 kts | 43° |
| 2026-04-27 20:22 | 21.96547 | 39.32399 | 12493 ft | 378 kts | 43° |
| 2026-04-27 20:22 | 21.98472 | 39.34358 | 13222 ft | 385 kts | 43° |
| 2026-04-27 20:22 | 22.00410 | 39.36331 | 13911 ft | 391 kts | 43° |
| 2026-04-27 20:22 | 22.02399 | 39.38358 | 14573 ft | 396 kts | 42° |
| 2026-04-27 20:23 | 22.04416 | 39.40415 | 15218 ft | 402 kts | 42° |
| 2026-04-27 20:23 | 22.06452 | 39.42491 | 15860 ft | 408 kts | 41° |
| 2026-04-27 20:23 | 22.08538 | 39.44619 | 16488 ft | 413 kts | 41° |
| 2026-04-27 20:23 | 22.10642 | 39.46766 | 17112 ft | 419 kts | 41° |
| 2026-04-27 20:24 | 22.12770 | 39.48939 | 17732 ft | 424 kts | 41° |
| 2026-04-27 20:24 | 22.14926 | 39.51142 | 18340 ft | 429 kts | 40° |
| 2026-04-27 20:24 | 22.17104 | 39.53367 | 18878 ft | 434 kts | 41° |
| 2026-04-27 20:24 | 22.19306 | 39.55620 | 19413 ft | 438 kts | 41° |
| 2026-04-27 20:25 | 22.21532 | 39.57897 | 19902 ft | 444 kts | 41° |
| 2026-04-27 20:25 | 22.23787 | 39.60204 | 20434 ft | 449 kts | 41° |
| 2026-04-27 20:25 | 22.25321 | 39.61775 | 20800 ft | 452 kts | 41° |
| 2026-04-27 20:25 | 22.28363 | 39.64891 | 21469 ft | 459 kts | 41° |
| 2026-04-27 20:26 | 22.29901 | 39.66468 | 21784 ft | 462 kts | 41° |
| 2026-04-27 20:26 | 22.32242 | 39.68867 | 22293 ft | 467 kts | 41° |
| 2026-04-27 20:26 | 22.34607 | 39.71294 | 22819 ft | 471 kts | 41° |
| 2026-04-27 20:26 | 22.37026 | 39.73777 | 23346 ft | 476 kts | 41° |
| 2026-04-27 20:27 | 22.39403 | 39.76216 | 23793 ft | 480 kts | 41° |
| 2026-04-27 20:27 | 22.41827 | 39.78705 | 24293 ft | 482 kts | 41° |
| 2026-04-27 20:27 | 22.44234 | 39.81232 | 24772 ft | 485 kts | 45° |
| 2026-04-27 20:27 | 22.46374 | 39.84067 | 25248 ft | 488 kts | 53° |
| 2026-04-27 20:28 | 22.48134 | 39.87220 | 25644 ft | 494 kts | 63° |
| 2026-04-27 20:28 | 22.49611 | 39.90594 | 25978 ft | 499 kts | 64° |
| 2026-04-27 20:28 | 22.51086 | 39.93991 | 26434 ft | 500 kts | 64° |
| 2026-04-27 20:28 | 22.52070 | 39.96249 | 26674 ft | 503 kts | 64° |
| 2026-04-27 20:29 | 22.54075 | 40.00838 | 27218 ft | 505 kts | 64° |
| 2026-04-27 20:29 | 22.55582 | 40.04283 | 27601 ft | 508 kts | 64° |
| 2026-04-27 20:29 | 22.57096 | 40.07748 | 27979 ft | 511 kts | 63° |
| 2026-04-27 20:29 | 22.58617 | 40.11230 | 28336 ft | 513 kts | 63° |
| 2026-04-27 20:30 | 22.60146 | 40.14733 | 28697 ft | 516 kts | 63° |
| 2026-04-27 20:30 | 22.61680 | 40.18253 | 29044 ft | 518 kts | 63° |
| 2026-04-27 20:30 | 22.63222 | 40.21796 | 29373 ft | 521 kts | 63° |
| 2026-04-27 20:30 | 22.64771 | 40.25357 | 29717 ft | 523 kts | 63° |
| 2026-04-27 20:31 | 22.66325 | 40.28931 | 30014 ft | 527 kts | 63° |
| 2026-04-27 20:31 | 22.67887 | 40.32529 | 30300 ft | 529 kts | 63° |
| 2026-04-27 20:31 | 22.69454 | 40.36140 | 30586 ft | 531 kts | 63° |
| 2026-04-27 20:31 | 22.71006 | 40.39718 | 30857 ft | 533 kts | 63° |
| 2026-04-27 20:32 | 22.72583 | 40.43357 | 31126 ft | 535 kts | 63° |
| 2026-04-27 20:32 | 22.74167 | 40.47016 | 31454 ft | 536 kts | 63° |
| 2026-04-27 20:32 | 22.75747 | 40.50670 | 31820 ft | 535 kts | 62° |
| 2026-04-27 20:32 | 22.77324 | 40.54318 | 32171 ft | 535 kts | 62° |
| 2026-04-27 20:33 | 22.78900 | 40.57966 | 32499 ft | 534 kts | 62° |
| 2026-04-27 20:33 | 22.80475 | 40.61615 | 32810 ft | 534 kts | 62° |
| 2026-04-27 20:33 | 22.82045 | 40.65255 | 33125 ft | 534 kts | 62° |
| 2026-04-27 20:33 | 22.83616 | 40.68897 | 33416 ft | 533 kts | 62° |
| 2026-04-27 20:34 | 22.85184 | 40.72539 | 33726 ft | 533 kts | 62° |
| 2026-04-27 20:34 | 22.86750 | 40.76179 | 34017 ft | 532 kts | 62° |
| 2026-04-27 20:34 | 22.88313 | 40.79813 | 34274 ft | 531 kts | 62° |
| 2026-04-27 20:34 | 22.89871 | 40.83437 | 34526 ft | 530 kts | 62° |
| 2026-04-27 20:35 | 22.91425 | 40.87056 | 34786 ft | 529 kts | 62° |
| 2026-04-27 20:35 | 22.92977 | 40.90672 | 34923 ft | 528 kts | 62° |
| 2026-04-27 20:35 | 22.96069 | 40.97887 | 34999 ft | 527 kts | 62° |
| 2026-04-27 20:36 | 22.99180 | 41.05152 | 35002 ft | 536 kts | 62° |
| 2026-04-27 20:36 | 23.02345 | 41.12555 | 35002 ft | 545 kts | 62° |
| 2026-04-27 20:37 | 23.05550 | 41.20066 | 35005 ft | 551 kts | 62° |
| 2026-04-27 20:37 | 23.08749 | 41.27578 | 35002 ft | 552 kts | 62° |
| 2026-04-27 20:38 | 23.11969 | 41.35150 | 34997 ft | 552 kts | 62° |
| 2026-04-27 20:38 | 23.15186 | 41.42724 | 34995 ft | 552 kts | 62° |
| 2026-04-27 20:39 | 23.18399 | 41.50303 | 34991 ft | 552 kts | 62° |
| 2026-04-27 20:39 | 23.21612 | 41.57894 | 34989 ft | 553 kts | 62° |
| 2026-04-27 20:40 | 23.24822 | 41.65489 | 34985 ft | 553 kts | 62° |
| 2026-04-27 20:40 | 23.28030 | 41.73091 | 34984 ft | 553 kts | 62° |
| 2026-04-27 20:41 | 23.31234 | 41.80697 | 34982 ft | 553 kts | 62° |
| 2026-04-27 20:41 | 23.34434 | 41.88309 | 34978 ft | 553 kts | 62° |
| 2026-04-27 20:42 | 23.37631 | 41.95924 | 34977 ft | 553 kts | 62° |
| 2026-04-27 20:42 | 23.40806 | 42.03497 | 34975 ft | 554 kts | 62° |
| 2026-04-27 20:43 | 23.44000 | 42.11130 | 34974 ft | 554 kts | 62° |
| 2026-04-27 20:43 | 23.47189 | 42.18764 | 34971 ft | 554 kts | 62° |
| 2026-04-27 20:44 | 23.50376 | 42.26404 | 34973 ft | 554 kts | 62° |
| 2026-04-27 20:44 | 23.53559 | 42.34049 | 34977 ft | 554 kts | 63° |
| 2026-04-27 20:45 | 23.56739 | 42.41700 | 34977 ft | 554 kts | 63° |
| 2026-04-27 20:45 | 23.59914 | 42.49348 | 34978 ft | 554 kts | 63° |
| 2026-04-27 20:46 | 23.63087 | 42.57008 | 34982 ft | 554 kts | 63° |
| 2026-04-27 20:46 | 23.66260 | 42.64679 | 34984 ft | 555 kts | 63° |
| 2026-04-27 20:47 | 23.69429 | 42.72354 | 34982 ft | 555 kts | 63° |
| 2026-04-27 20:47 | 23.72598 | 42.80040 | 34984 ft | 556 kts | 63° |
| 2026-04-27 20:48 | 23.75766 | 42.87740 | 34983 ft | 556 kts | 63° |
| 2026-04-27 20:48 | 23.78932 | 42.95445 | 34983 ft | 556 kts | 63° |
| 2026-04-27 20:49 | 23.82072 | 43.03100 | 34982 ft | 556 kts | 63° |
| 2026-04-27 20:49 | 23.85227 | 43.10804 | 34978 ft | 556 kts | 63° |
| 2026-04-27 20:50 | 23.88384 | 43.18528 | 34974 ft | 557 kts | 63° |
| 2026-04-27 20:50 | 23.91536 | 43.26255 | 34973 ft | 557 kts | 63° |
| 2026-04-27 20:51 | 23.94689 | 43.33995 | 34969 ft | 557 kts | 63° |
| 2026-04-27 20:51 | 23.97840 | 43.41745 | 34968 ft | 557 kts | 63° |
| 2026-04-27 20:52 | 24.00985 | 43.49491 | 34962 ft | 558 kts | 63° |
| 2026-04-27 20:52 | 24.04129 | 43.57250 | 34952 ft | 558 kts | 64° |
| 2026-04-27 20:53 | 24.07252 | 43.64972 | 34953 ft | 558 kts | 64° |
| 2026-04-27 20:53 | 24.10391 | 43.72743 | 34952 ft | 559 kts | 64° |
| 2026-04-27 20:54 | 24.15097 | 43.84422 | 34952 ft | 559 kts | 64° |
| 2026-04-27 20:55 | 24.18230 | 43.92215 | 34947 ft | 559 kts | 64° |
| 2026-04-27 20:55 | 24.21359 | 44.00012 | 34943 ft | 559 kts | 64° |
| 2026-04-27 20:56 | 24.24486 | 44.07815 | 34942 ft | 559 kts | 64° |
| 2026-04-27 20:56 | 24.27607 | 44.15620 | 34939 ft | 559 kts | 64° |
| 2026-04-27 20:57 | 24.30669 | 44.23296 | 34943 ft | 534 kts | 64° |
| 2026-04-27 20:57 | 24.32127 | 44.26961 | 34945 ft | 516 kts | 64° |
| 2026-04-27 20:57 | 24.33545 | 44.30524 | 34947 ft | 508 kts | 64° |
| 2026-04-27 20:58 | 24.36415 | 44.37722 | 34945 ft | 519 kts | 64° |
| 2026-04-27 20:58 | 24.39295 | 44.44967 | 34950 ft | 517 kts | 64° |
| 2026-04-27 20:59 | 24.42166 | 44.52208 | 34959 ft | 517 kts | 64° |
| 2026-04-27 20:59 | 24.45019 | 44.59414 | 34509 ft | 513 kts | 64° |
| 2026-04-27 20:59 | 24.46443 | 44.63013 | 33926 ft | 514 kts | 64° |
| 2026-04-27 21:00 | 24.47867 | 44.66615 | 33223 ft | 515 kts | 64° |
| 2026-04-27 21:00 | 24.49292 | 44.70219 | 32541 ft | 514 kts | 65° |
| 2026-04-27 21:00 | 24.50714 | 44.73817 | 31865 ft | 513 kts | 65° |
| 2026-04-27 21:00 | 24.52133 | 44.77412 | 31197 ft | 513 kts | 66° |
| 2026-04-27 21:01 | 24.53551 | 44.81003 | 30566 ft | 511 kts | 66° |
| 2026-04-27 21:01 | 24.54948 | 44.84547 | 30385 ft | 502 kts | 66° |
| 2026-04-27 21:01 | 24.56342 | 44.88089 | 30240 ft | 508 kts | 66° |
| 2026-04-27 21:01 | 24.57747 | 44.91658 | 30114 ft | 509 kts | 66° |
| 2026-04-27 21:02 | 24.59010 | 44.95272 | 30002 ft | 505 kts | 73° |
| 2026-04-27 21:02 | 24.60500 | 45.02782 | 29947 ft | 504 kts | 81° |
| 2026-04-27 21:03 | 24.61774 | 45.10347 | 29814 ft | 499 kts | 81° |
| 2026-04-27 21:03 | 24.62406 | 45.14080 | 29166 ft | 494 kts | 81° |
| 2026-04-27 21:03 | 24.63028 | 45.17775 | 28392 ft | 489 kts | 81° |
| 2026-04-27 21:03 | 24.63642 | 45.21436 | 27542 ft | 484 kts | 81° |
| 2026-04-27 21:04 | 24.64245 | 45.25050 | 26746 ft | 479 kts | 81° |
| 2026-04-27 21:04 | 24.64841 | 45.28632 | 25963 ft | 473 kts | 81° |
| 2026-04-27 21:04 | 24.65430 | 45.32180 | 25284 ft | 470 kts | 81° |
| 2026-04-27 21:04 | 24.66013 | 45.35699 | 24808 ft | 466 kts | 81° |
| 2026-04-27 21:05 | 24.66592 | 45.39192 | 24302 ft | 462 kts | 81° |
| 2026-04-27 21:05 | 24.67165 | 45.42655 | 23792 ft | 459 kts | 81° |
| 2026-04-27 21:05 | 24.67726 | 45.46052 | 23268 ft | 456 kts | 81° |
| 2026-04-27 21:05 | 24.68288 | 45.49454 | 22797 ft | 449 kts | 81° |
| 2026-04-27 21:06 | 24.68842 | 45.52810 | 22333 ft | 443 kts | 81° |
| 2026-04-27 21:06 | 24.69386 | 45.56107 | 22081 ft | 434 kts | 81° |
| 2026-04-27 21:06 | 24.69925 | 45.59383 | 21964 ft | 439 kts | 81° |
| 2026-04-27 21:06 | 24.70467 | 45.62690 | 21916 ft | 439 kts | 81° |
| 2026-04-27 21:07 | 24.71008 | 45.65994 | 21923 ft | 438 kts | 81° |
| 2026-04-27 21:07 | 24.71702 | 45.69256 | 21920 ft | 439 kts | 74° |
| 2026-04-27 21:07 | 24.72591 | 45.72477 | 21920 ft | 440 kts | 74° |
| 2026-04-27 21:07 | 24.73475 | 45.75694 | 21917 ft | 440 kts | 74° |
| 2026-04-27 21:08 | 24.74357 | 45.78919 | 21913 ft | 440 kts | 74° |
| 2026-04-27 21:08 | 24.75237 | 45.82143 | 21924 ft | 440 kts | 74° |
| 2026-04-27 21:08 | 24.76116 | 45.85369 | 21923 ft | 440 kts | 74° |
| 2026-04-27 21:08 | 24.76994 | 45.88596 | 21927 ft | 440 kts | 74° |
| 2026-04-27 21:09 | 24.77872 | 45.91826 | 21923 ft | 440 kts | 74° |
| 2026-04-27 21:09 | 24.78748 | 45.95053 | 21914 ft | 440 kts | 74° |
| 2026-04-27 21:09 | 24.79622 | 45.98269 | 21726 ft | 438 kts | 74° |
| 2026-04-27 21:09 | 24.80489 | 46.01466 | 21379 ft | 434 kts | 74° |
| 2026-04-27 21:10 | 24.81347 | 46.04633 | 20942 ft | 429 kts | 74° |
| 2026-04-27 21:10 | 24.82196 | 46.07770 | 20468 ft | 425 kts | 74° |
| 2026-04-27 21:10 | 24.83034 | 46.10868 | 20029 ft | 420 kts | 75° |
| 2026-04-27 21:10 | 24.83863 | 46.13938 | 19581 ft | 415 kts | 75° |
| 2026-04-27 21:11 | 24.84681 | 46.16969 | 19142 ft | 410 kts | 75° |
| 2026-04-27 21:11 | 24.85478 | 46.19924 | 18713 ft | 406 kts | 75° |
| 2026-04-27 21:11 | 24.86275 | 46.22884 | 18305 ft | 401 kts | 75° |
| 2026-04-27 21:11 | 24.87064 | 46.25815 | 17824 ft | 396 kts | 75° |
| 2026-04-27 21:12 | 24.87866 | 46.28705 | 17305 ft | 394 kts | 71° |
| 2026-04-27 21:12 | 24.89139 | 46.31354 | 16782 ft | 392 kts | 53° |
| 2026-04-27 21:12 | 24.91019 | 46.33488 | 16288 ft | 387 kts | 36° |
| 2026-04-27 21:12 | 24.93335 | 46.34949 | 15770 ft | 382 kts | 19° |
| 2026-04-27 21:13 | 24.94789 | 46.35447 | 15471 ft | 379 kts | 9° |
| 2026-04-27 21:13 | 24.97141 | 46.35713 | 14994 ft | 373 kts | 356° |
| 2026-04-27 21:13 | 24.99736 | 46.35760 | 14456 ft | 374 kts | 0° |
| 2026-04-27 21:13 | 25.02327 | 46.36048 | 13961 ft | 374 kts | 6° |
| 2026-04-27 21:14 | 25.04879 | 46.36597 | 13477 ft | 373 kts | 12° |
| 2026-04-27 21:14 | 25.07355 | 46.37400 | 12992 ft | 370 kts | 18° |
| 2026-04-27 21:14 | 25.09740 | 46.38446 | 12490 ft | 368 kts | 24° |
| 2026-04-27 21:14 | 25.12007 | 46.39704 | 11922 ft | 362 kts | 29° |
| 2026-04-27 21:15 | 25.14137 | 46.41168 | 11196 ft | 359 kts | 38° |
| 2026-04-27 21:15 | 25.15850 | 46.43122 | 10541 ft | 351 kts | 59° |
| 2026-04-27 21:15 | 25.16797 | 46.45493 | 10306 ft | 326 kts | 80° |
| 2026-04-27 21:15 | 25.17050 | 46.47880 | 10136 ft | 303 kts | 90° |
| 2026-04-27 21:16 | 25.17552 | 46.50078 | 9972 ft | 292 kts | 64° |
| 2026-04-27 21:16 | 25.18795 | 46.51753 | 9820 ft | 277 kts | 36° |
| 2026-04-27 21:16 | 25.20486 | 46.52597 | 9544 ft | 262 kts | 6° |
| 2026-04-27 21:16 | 25.22250 | 46.52490 | 9086 ft | 250 kts | 336° |
| 2026-04-27 21:17 | 25.23846 | 46.51837 | 8651 ft | 247 kts | 333° |
| 2026-04-27 21:17 | 25.25404 | 46.51085 | 8255 ft | 242 kts | 328° |
| 2026-04-27 21:17 | 25.26894 | 46.50267 | 7963 ft | 239 kts | 328° |
| 2026-04-27 21:17 | 25.28382 | 46.49439 | 7926 ft | 241 kts | 328° |
| 2026-04-27 21:18 | 25.29878 | 46.48605 | 7928 ft | 241 kts | 328° |
| 2026-04-27 21:18 | 25.31370 | 46.47776 | 7861 ft | 238 kts | 328° |
| 2026-04-27 21:18 | 25.32851 | 46.46947 | 7480 ft | 241 kts | 328° |
| 2026-04-27 21:18 | 25.34362 | 46.46083 | 7111 ft | 247 kts | 328° |
| 2026-04-27 21:19 | 25.35980 | 46.45225 | 6957 ft | 266 kts | 335° |
| 2026-04-27 21:19 | 25.37731 | 46.44558 | 6929 ft | 264 kts | 338° |
| 2026-04-27 21:19 | 25.39458 | 46.43954 | 6787 ft | 260 kts | 345° |
| 2026-04-27 21:20 | 25.42829 | 46.44954 | 6194 ft | 261 kts | 44° |
| 2026-04-27 21:20 | 25.43771 | 46.46621 | 5972 ft | 255 kts | 76° |
| 2026-04-27 21:20 | 25.43841 | 46.48565 | 5928 ft | 256 kts | 106° |
| 2026-04-27 21:20 | 25.43051 | 46.50279 | 5923 ft | 249 kts | 136° |
| 2026-04-27 21:21 | 25.41655 | 46.51358 | 5923 ft | 245 kts | 162° |
| 2026-04-27 21:21 | 25.40014 | 46.51805 | 5922 ft | 243 kts | 171° |
| 2026-04-27 21:21 | 25.38385 | 46.52200 | 5924 ft | 242 kts | 170° |
| 2026-04-27 21:21 | 25.36742 | 46.52615 | 5925 ft | 242 kts | 170° |
| 2026-04-27 21:22 | 25.35080 | 46.53045 | 5925 ft | 243 kts | 170° |
| 2026-04-27 21:22 | 25.33457 | 46.53467 | 5925 ft | 243 kts | 169° |
| 2026-04-27 21:22 | 25.31793 | 46.53902 | 5925 ft | 242 kts | 170° |
| 2026-04-27 21:22 | 25.30172 | 46.54324 | 5920 ft | 242 kts | 170° |
| 2026-04-27 21:23 | 25.28535 | 46.54752 | 5922 ft | 242 kts | 170° |
| 2026-04-27 21:23 | 25.26894 | 46.55179 | 5922 ft | 242 kts | 170° |
| 2026-04-27 21:23 | 25.25256 | 46.55605 | 5920 ft | 242 kts | 170° |
| 2026-04-27 21:23 | 25.23614 | 46.56032 | 5919 ft | 243 kts | 170° |
| 2026-04-27 21:24 | 25.21970 | 46.56459 | 5919 ft | 243 kts | 169° |
| 2026-04-27 21:24 | 25.20337 | 46.56883 | 5811 ft | 240 kts | 169° |
| 2026-04-27 21:24 | 25.18719 | 46.57320 | 5616 ft | 239 kts | 167° |
| 2026-04-27 21:24 | 25.17141 | 46.57958 | 5515 ft | 244 kts | 158° |
| 2026-04-27 21:25 | 25.15624 | 46.58806 | 5410 ft | 244 kts | 154° |
| 2026-04-27 21:25 | 25.14149 | 46.59738 | 5297 ft | 244 kts | 153° |
| 2026-04-27 21:25 | 25.12695 | 46.60660 | 5186 ft | 236 kts | 153° |
| 2026-04-27 21:25 | 25.11287 | 46.61555 | 4948 ft | 231 kts | 153° |
| 2026-04-27 21:26 | 25.09906 | 46.62432 | 4689 ft | 227 kts | 153° |
| 2026-04-27 21:26 | 25.08546 | 46.63297 | 4415 ft | 224 kts | 153° |
| 2026-04-27 21:26 | 25.07215 | 46.64143 | 4131 ft | 214 kts | 153° |
| 2026-04-27 21:26 | 25.05968 | 46.64937 | 3861 ft | 200 kts | 153° |
| 2026-04-27 21:27 | 25.04799 | 46.65679 | 3618 ft | 188 kts | 152° |
| 2026-04-27 21:27 | 25.03723 | 46.66364 | 3437 ft | 168 kts | 152° |
| 2026-04-27 21:27 | 25.02768 | 46.66971 | 3212 ft | 152 kts | 152° |
| 2026-04-27 21:27 | 25.01834 | 46.67563 | 3024 ft | 156 kts | 152° |
| 2026-04-27 21:28 | 25.00894 | 46.68161 | 2813 ft | 155 kts | 152° |
| 2026-04-27 21:28 | 24.99972 | 46.68746 | 2608 ft | 155 kts | 150° |
| 2026-04-27 21:28 | 24.99029 | 46.69347 | 2395 ft | 154 kts | 150° |
| 2026-04-27 21:28 | 24.98113 | 46.69932 | 2187 ft | 149 kts | 150° |
| 2026-04-27 21:29 | 24.97235 | 46.70487 | 2036 ft | 138 kts | 151° |
| 2026-04-27 21:29 | 24.96529 | 46.70930 | 2029 ft | 92 kts | 150° |
| 2026-04-27 21:29 | 24.96147 | 46.71171 | 2032 ft | 33 kts | 150° |
| 2026-04-27 21:29 | 24.96020 | 46.71250 | 2030 ft | 20 kts | 150° |
| 2026-04-27 21:30 | 24.95889 | 46.71333 | 2030 ft | 22 kts | 148° |
| 2026-04-27 21:30 | 24.95748 | 46.71410 | 2032 ft | 23 kts | 161° |
| 2026-04-27 21:30 | 24.95585 | 46.71427 | 2032 ft | 23 kts | 187° |
| 2026-04-27 21:30 | 24.95473 | 46.71349 | 2034 ft | 19 kts | 238° |
| 2026-04-27 21:31 | 24.95457 | 46.71316 | 2036 ft | 2 kts | 242° |
| 2026-04-27 21:31 | 24.95440 | 46.71281 | 2034 ft | 9 kts | 241° |
| 2026-04-27 21:31 | 24.95394 | 46.71196 | 2035 ft | 16 kts | 239° |
| 2026-04-27 21:31 | 24.95332 | 46.71082 | 2041 ft | 19 kts | 240° |
| 2026-04-27 21:32 | 24.95263 | 46.70950 | 2036 ft | 21 kts | 240° |
| 2026-04-27 21:32 | 24.95159 | 46.70886 | 2033 ft | 19 kts | 150° |
| 2026-04-27 21:32 | 24.95038 | 46.70963 | 2039 ft | 21 kts | 152° |
| 2026-04-27 21:32 | 24.94906 | 46.71048 | 2031 ft | 23 kts | 149° |
| 2026-04-27 21:33 | 24.94763 | 46.71139 | 2033 ft | 24 kts | 150° |
| 2026-04-27 21:33 | 24.94623 | 46.71226 | 2034 ft | 21 kts | 150° |
| 2026-04-27 21:33 | 24.94521 | 46.71286 | 2034 ft | 7 kts | 182° |
| 2026-04-27 21:33 | 24.94518 | 46.71283 | 2033 ft | 0 kts | 220° |
| 2026-04-27 21:34 | 24.94514 | 46.71271 | 2036 ft | 5 kts | 242° |
| 2026-04-27 21:34 | 24.94488 | 46.71220 | 2038 ft | 8 kts | 239° |
| 2026-04-27 21:34 | 24.94478 | 46.71201 | 2032 ft | 0 kts | 239° |